Time;durP1;ratioP1;P1;durP2;ratioP2;P2;SDS_P1;SDS_P2;PMS_P1;PMS_P2;Temp;Humidity;BMP_temperature;BMP_pressure;BME280_temperature;BME280_humidity;BME280_pressure;Samples;Min_cycle;Max_cycle;Signal;HPM_P1;HPM_P2
2023/06/10 00:01:58;;;;;;;20.27;12.85;;;15.80;99.90;;;;;;5091660;28;20380;-77
2023/06/10 00:04:23;;;;;;;17.75;12.85;;;15.70;99.90;;;;;;5109221;28;20027;-77
2023/06/10 00:06:49;;;;;;;20.13;13.20;;;15.50;99.90;;;;;;5107642;28;20024;-77
2023/06/10 00:09:15;;;;;;;18.35;12.40;;;15.40;99.90;;;;;;5109223;28;20035;-76
2023/06/10 00:11:41;;;;;;;19.85;13.07;;;15.40;99.90;;;;;;5107058;28;20039;-76
2023/06/10 00:14:07;;;;;;;17.85;12.45;;;15.30;99.90;;;;;;5109223;28;20357;-75
2023/06/10 00:16:33;;;;;;;18.42;12.50;;;15.30;99.90;;;;;;5099110;28;20040;-77
2023/06/10 00:19:03;;;;;;;20.00;12.82;;;15.40;99.90;;;;;;5073110;28;20119;-77
2023/06/10 00:21:37;;;;;;;18.20;12.55;;;15.30;99.90;;;;;;5075114;28;20046;-78
2023/06/10 00:24:11;;;;;;;16.98;11.60;;;15.20;99.90;;;;;;5093647;28;20495;-77
2023/06/10 00:26:41;;;;;;;18.13;11.23;;;15.20;99.90;;;;;;5086148;28;20698;-77
2023/06/10 00:29:07;;;;;;;15.60;10.88;;;15.30;99.90;;;;;;5088762;28;20373;-77
2023/06/10 00:31:34;;;;;;;15.48;9.95;;;15.40;99.90;;;;;;5087869;28;20503;-77
2023/06/10 00:34:00;;;;;;;17.17;10.68;;;15.50;99.90;;;;;;5107090;28;20043;-76
2023/06/10 00:36:26;;;;;;;16.70;10.80;;;15.50;99.90;;;;;;5100721;28;20067;-79
2023/06/10 00:38:52;;;;;;;15.70;10.90;;;15.50;99.90;;;;;;5093626;28;20573;-76
2023/06/10 00:41:18;;;;;;;14.10;9.93;;;15.50;99.90;;;;;;5107483;28;20656;-76
2023/06/10 00:43:44;;;;;;;14.93;9.80;;;15.50;99.90;;;;;;5106943;28;20027;-75
2023/06/10 00:46:11;;;;;;;19.17;9.55;;;15.60;99.90;;;;;;5103643;28;20052;-76
2023/06/10 00:48:38;;;;;;;14.52;9.50;;;15.60;99.90;;;;;;5087528;28;20040;-76
2023/06/10 00:51:05;;;;;;;17.77;10.43;;;15.60;99.90;;;;;;5086934;28;20031;-76
2023/06/10 00:53:32;;;;;;;15.10;10.25;;;15.60;99.90;;;;;;5101546;28;20031;-78
2023/06/10 00:55:59;;;;;;;14.98;9.75;;;15.50;99.90;;;;;;5108391;28;20549;-77
2023/06/10 00:58:25;;;;;;;15.20;9.98;;;15.50;99.90;;;;;;5087430;28;20390;-76
2023/06/10 01:00:51;;;;;;;16.30;10.15;;;15.40;99.90;;;;;;5067319;28;20995;-77
2023/06/10 01:03:18;;;;;;;16.52;10.00;;;15.40;99.90;;;;;;5089923;28;20047;-76
2023/06/10 01:05:45;;;;;;;17.75;10.35;;;15.40;99.90;;;;;;5107730;28;20035;-76
2023/06/10 01:08:38;;;;;;;15.93;10.25;;;15.30;99.90;;;;;;5091481;28;20043;-77
2023/06/10 01:11:11;;;;;;;14.50;10.02;;;15.30;99.90;;;;;;5107478;28;20032;-77
2023/06/10 01:13:41;;;;;;;17.70;10.63;;;15.30;99.90;;;;;;5105684;28;20024;-76
2023/06/10 01:16:07;;;;;;;17.88;10.77;;;15.20;99.90;;;;;;5099222;28;20078;-77
2023/06/10 01:18:33;;;;;;;18.92;11.23;;;15.10;99.90;;;;;;5085881;28;20036;-79
2023/06/10 01:20:59;;;;;;;17.15;11.57;;;15.00;99.90;;;;;;5091760;28;20032;-77
2023/06/10 01:23:25;;;;;;;17.95;12.15;;;14.80;99.90;;;;;;5094838;28;20122;-76
2023/06/10 01:26:07;;;;;;;19.55;11.55;;;14.60;99.90;;;;;;5091612;28;20024;-76
2023/06/10 01:28:32;;;;;;;18.58;11.18;;;14.50;99.90;;;;;;5091139;28;20036;-79
2023/06/10 01:31:33;;;;;;;17.42;11.25;;;14.50;99.90;;;;;;5108369;28;20096;-77
2023/06/10 01:34:02;;;;;;;17.75;11.43;;;14.40;99.90;;;;;;5105947;28;20055;-76
2023/06/10 01:36:28;;;;;;;18.67;11.20;;;14.40;99.90;;;;;;5100057;28;20035;-77
2023/06/10 01:38:55;;;;;;;16.33;10.68;;;14.40;99.90;;;;;;5089176;28;20032;-77
2023/06/10 01:41:22;;;;;;;15.93;10.70;;;14.40;99.90;;;;;;5091243;28;20451;-77
2023/06/10 01:43:48;;;;;;;15.45;10.35;;;14.40;99.90;;;;;;5087412;28;20036;-77
2023/06/10 01:46:15;;;;;;;21.27;12.18;;;14.40;99.90;;;;;;5082629;28;20052;-77
2023/06/10 01:48:42;;;;;;;16.70;11.32;;;14.40;99.90;;;;;;5093084;27;20040;-77
2023/06/10 01:51:07;;;;;;;19.13;11.95;;;14.20;99.90;;;;;;5089799;28;20046;-75
2023/06/10 01:53:33;;;;;;;18.85;11.57;;;14.10;99.90;;;;;;5102323;28;20040;-78
2023/06/10 01:55:59;;;;;;;18.27;11.07;;;14.00;99.90;;;;;;5094318;28;20025;-77
2023/06/10 01:58:25;;;;;;;16.73;10.82;;;14.00;99.90;;;;;;5070956;28;20029;-76
2023/06/10 02:00:51;;;;;;;15.32;9.70;;;14.10;99.90;;;;;;5102663;28;20029;-77
2023/06/10 02:03:16;;;;;;;17.70;11.02;;;14.10;99.90;;;;;;5122221;27;20057;-76
2023/06/10 02:05:42;;;;;;;17.25;9.73;;;14.10;99.90;;;;;;5095155;28;20035;-77
2023/06/10 02:08:08;;;;;;;16.85;10.63;;;14.10;99.90;;;;;;5103011;28;20031;-77
2023/06/10 02:10:34;;;;;;;16.70;10.90;;;14.10;99.90;;;;;;5100305;28;20046;-79
2023/06/10 02:12:59;;;;;;;16.58;10.63;;;14.10;99.90;;;;;;5109706;28;20100;-76
2023/06/10 02:15:25;;;;;;;16.17;10.10;;;14.00;99.90;;;;;;5111024;28;20106;-77
2023/06/10 02:17:52;;;;;;;16.27;9.88;;;14.00;99.90;;;;;;5092257;28;20074;-77
2023/06/10 02:20:17;;;;;;;14.57;9.18;;;14.00;99.90;;;;;;5101640;28;20027;-76
2023/06/10 02:22:43;;;;;;;15.07;9.68;;;14.10;99.90;;;;;;5110179;28;20028;-75
2023/06/10 02:25:09;;;;;;;17.85;9.75;;;14.10;99.90;;;;;;5111129;28;20031;-76
2023/06/10 02:27:34;;;;;;;15.32;9.63;;;14.00;99.90;;;;;;5087423;28;20024;-79
2023/06/10 02:30:00;;;;;;;16.35;9.75;;;14.00;99.90;;;;;;5091894;28;20131;-76
2023/06/10 02:32:26;;;;;;;15.75;9.73;;;14.10;99.90;;;;;;5070277;28;20107;-77
2023/06/10 02:34:52;;;;;;;14.00;8.93;;;14.20;99.90;;;;;;5069471;28;20074;-76
2023/06/10 02:37:17;;;;;;;18.17;10.38;;;14.20;99.90;;;;;;5078720;28;20053;-77
2023/06/10 02:39:43;;;;;;;15.85;10.32;;;14.20;99.90;;;;;;5103593;28;20373;-77
2023/06/10 02:42:09;;;;;;;17.95;11.48;;;13.90;99.90;;;;;;5070154;28;20028;-77
2023/06/10 02:44:35;;;;;;;17.50;11.50;;;13.80;99.90;;;;;;5069578;28;20142;-78
2023/06/10 02:47:01;;;;;;;17.23;10.80;;;13.70;99.90;;;;;;5069138;28;20048;-77
2023/06/10 02:49:28;;;;;;;17.02;10.85;;;13.60;99.90;;;;;;5089624;28;20023;-77
2023/06/10 02:51:53;;;;;;;16.60;10.80;;;13.60;99.90;;;;;;5108146;28;20035;-77
2023/06/10 02:54:25;;;;;;;18.38;11.95;;;13.50;99.90;;;;;;5110371;28;20026;-76
2023/06/10 02:56:52;;;;;;;15.80;10.15;;;13.50;99.90;;;;;;5083498;28;20500;-77
2023/06/10 02:59:17;;;;;;;16.75;10.98;;;13.40;99.90;;;;;;5093630;28;20027;-76
2023/06/10 03:01:43;;;;;;;17.70;10.43;;;13.40;99.90;;;;;;5080699;28;20052;-76
2023/06/10 03:04:09;;;;;;;17.63;10.05;;;13.40;99.90;;;;;;5069915;28;20090;-77
2023/06/10 03:06:35;;;;;;;15.00;9.70;;;13.50;99.90;;;;;;5069153;28;20078;-79
2023/06/10 03:09:01;;;;;;;15.35;10.07;;;13.40;99.90;;;;;;5087021;28;20030;-77
2023/06/10 03:11:27;;;;;;;15.93;9.90;;;13.50;99.90;;;;;;5098550;28;20069;-76
2023/06/10 03:13:54;;;;;;;21.15;9.82;;;13.60;99.90;;;;;;5109285;28;20027;-76
2023/06/10 03:16:19;;;;;;;17.67;10.57;;;13.60;99.90;;;;;;5097814;28;20514;-77
2023/06/10 03:18:45;;;;;;;15.38;10.30;;;13.60;99.90;;;;;;5088047;28;20036;-78
2023/06/10 03:21:11;;;;;;;16.70;11.18;;;13.50;99.90;;;;;;5107322;28;20035;-76
2023/06/10 03:23:37;;;;;;;17.30;10.68;;;13.50;99.90;;;;;;5098404;28;20044;-79
2023/06/10 03:26:04;;;;;;;16.67;10.63;;;13.50;99.90;;;;;;5080407;28;20071;-75
2023/06/10 03:28:30;;;;;;;18.48;11.05;;;13.40;99.90;;;;;;5087285;28;20035;-76
2023/06/10 03:30:56;;;;;;;17.52;11.15;;;13.20;99.90;;;;;;5091925;28;20052;-77
2023/06/10 03:33:22;;;;;;;16.80;10.60;;;13.20;99.90;;;;;;5068886;28;20095;-77
2023/06/10 03:35:47;;;;;;;17.60;10.50;;;13.20;99.90;;;;;;5068300;28;20029;-77
2023/06/10 03:38:13;;;;;;;17.70;9.75;;;13.20;99.90;;;;;;5068853;28;20504;-77
2023/06/10 03:40:39;;;;;;;15.02;9.82;;;13.20;99.90;;;;;;5095213;28;20031;-78
2023/06/10 03:43:05;;;;;;;16.13;9.40;;;13.30;99.90;;;;;;5102546;28;20032;-77
2023/06/10 03:45:31;;;;;;;14.77;8.55;;;13.50;99.90;;;;;;5088676;28;20045;-77
2023/06/10 03:47:58;;;;;;;23.42;9.48;;;13.50;99.90;;;;;;5111120;27;20709;-77
2023/06/10 03:50:24;;;;;;;16.15;8.77;;;13.60;99.90;;;;;;5125494;27;20432;-77
2023/06/10 03:52:50;;;;;;;15.75;8.63;;;13.70;99.90;;;;;;5108399;28;20023;-77
2023/06/10 03:55:16;;;;;;;15.50;8.85;;;13.80;99.90;;;;;;5109502;28;20024;-77
2023/06/10 03:57:43;;;;;;;20.13;9.15;;;13.80;99.90;;;;;;5100035;28;20439;-79
2023/06/10 04:00:12;;;;;;;15.68;8.95;;;13.80;99.90;;;;;;5096490;28;20491;-77
2023/06/10 04:02:45;;;;;;;18.13;10.38;;;13.80;99.90;;;;;;5108284;28;20027;-77
2023/06/10 04:05:17;;;;;;;16.25;9.90;;;13.80;99.90;;;;;;5105117;28;20034;-77
2023/06/10 04:07:43;;;;;;;15.25;9.88;;;13.70;99.90;;;;;;5099784;28;20477;-79
2023/06/10 04:10:13;;;;;;;16.58;9.88;;;13.70;99.90;;;;;;5086769;28;20104;-77
2023/06/10 04:12:38;;;;;;;13.73;9.82;;;13.80;99.90;;;;;;5094631;28;20051;-79
2023/06/10 04:15:05;;;;;;;16.80;10.13;;;13.90;99.90;;;;;;5068106;28;20036;-77
2023/06/10 04:17:31;;;;;;;17.30;10.10;;;13.90;99.90;;;;;;5084940;28;20036;-77
2023/06/10 04:19:57;;;;;;;15.90;10.18;;;14.00;99.90;;;;;;5092368;28;20032;-76
2023/06/10 04:22:23;;;;;;;16.02;9.90;;;14.10;99.90;;;;;;5108537;28;20019;-77
2023/06/10 04:24:49;;;;;;;14.65;9.30;;;14.10;99.90;;;;;;5092914;28;20059;-77
2023/06/10 04:27:15;;;;;;;14.98;8.93;;;14.20;99.90;;;;;;5086533;28;20105;-77
2023/06/10 04:29:41;;;;;;;17.50;10.10;;;14.40;99.90;;;;;;5091489;28;20498;-79
2023/06/10 04:32:07;;;;;;;16.20;10.30;;;14.50;99.90;;;;;;5095020;28;20028;-77
2023/06/10 04:34:38;;;;;;;14.85;9.52;;;14.60;99.90;;;;;;5079974;28;20468;-76
2023/06/10 04:37:04;;;;;;;16.58;10.43;;;14.60;99.90;;;;;;5089616;28;20027;-76
2023/06/10 04:39:30;;;;;;;15.52;10.30;;;14.60;99.90;;;;;;5068271;28;20039;-77
2023/06/10 04:41:56;;;;;;;14.85;10.18;;;14.70;99.90;;;;;;5086560;28;20024;-77
2023/06/10 04:44:22;;;;;;;17.55;10.65;;;14.80;99.90;;;;;;5083181;28;20028;-75
2023/06/10 04:46:47;;;;;;;19.13;10.80;;;14.80;99.90;;;;;;5067392;28;20056;-76
2023/06/10 04:49:16;;;;;;;17.52;10.05;;;14.90;99.90;;;;;;5067695;28;20476;-77
2023/06/10 04:51:41;;;;;;;16.95;10.02;;;15.00;99.90;;;;;;5075750;28;20040;-80
2023/06/10 04:54:07;;;;;;;16.60;10.32;;;15.10;99.90;;;;;;5079768;28;20043;-77
2023/06/10 04:56:33;;;;;;;14.98;10.02;;;15.10;99.90;;;;;;5090988;28;20059;-77
2023/06/10 04:58:59;;;;;;;15.23;9.63;;;15.10;99.90;;;;;;5080687;28;20036;-77
2023/06/10 05:01:25;;;;;;;14.98;9.27;;;15.30;99.90;;;;;;5078546;28;20033;-77
2023/06/10 05:03:51;;;;;;;14.13;9.40;;;15.50;99.90;;;;;;5084281;28;20491;-77
2023/06/10 05:06:17;;;;;;;18.38;10.13;;;15.70;99.90;;;;;;5090299;28;20535;-77
2023/06/10 05:08:43;;;;;;;14.85;9.27;;;15.90;99.90;;;;;;5079942;28;20391;-80
2023/06/10 05:11:08;;;;;;;15.80;10.10;;;16.10;99.90;;;;;;5083836;28;20051;-78
2023/06/10 05:13:34;;;;;;;15.90;9.80;;;16.00;99.90;;;;;;5075927;28;20472;-76
2023/06/10 05:16:00;;;;;;;14.52;9.88;;;15.80;99.90;;;;;;5089118;28;20089;-77
2023/06/10 05:18:26;;;;;;;16.65;10.02;;;15.80;99.90;;;;;;5076225;28;20097;-76
2023/06/10 05:20:53;;;;;;;14.88;10.05;;;15.80;99.90;;;;;;5085364;28;20028;-77
2023/06/10 05:23:19;;;;;;;16.23;10.38;;;16.00;99.90;;;;;;5091736;28;20032;-76
2023/06/10 05:25:45;;;;;;;17.42;9.65;;;16.20;99.90;;;;;;5091206;28;20528;-80
2023/06/10 05:28:11;;;;;;;13.88;9.50;;;16.20;99.90;;;;;;5103816;28;20039;-77
2023/06/10 05:30:37;;;;;;;17.35;9.65;;;16.30;99.90;;;;;;5111959;28;20027;-77
2023/06/10 05:33:06;;;;;;;16.83;9.75;;;16.40;99.90;;;;;;5103475;28;20032;-76
2023/06/10 05:35:31;;;;;;;14.30;9.18;;;16.50;99.90;;;;;;5090078;28;20020;-76
2023/06/10 05:37:57;;;;;;;14.43;9.52;;;16.70;99.90;;;;;;5088441;28;20190;-76
2023/06/10 05:40:23;;;;;;;14.50;8.68;;;16.80;99.90;;;;;;5087813;28;20028;-77
2023/06/10 05:42:49;;;;;;;12.93;8.32;;;17.10;99.90;;;;;;5088711;28;20384;-78
2023/06/10 05:45:14;;;;;;;13.63;8.80;;;17.40;99.90;;;;;;5088866;28;20028;-77
2023/06/10 05:47:40;;;;;;;12.57;8.20;;;17.70;99.90;;;;;;5090455;28;20111;-77
2023/06/10 05:50:10;;;;;;;11.90;8.02;;;18.00;99.90;;;;;;5089514;28;20071;-76
2023/06/10 05:52:36;;;;;;;13.25;8.40;;;18.20;99.90;;;;;;5083292;28;20024;-76
2023/06/10 05:55:05;;;;;;;10.93;7.53;;;18.50;99.90;;;;;;5092552;28;20024;-75
2023/06/10 05:57:31;;;;;;;11.77;7.40;;;18.70;99.90;;;;;;5097018;28;20391;-76
2023/06/10 05:59:56;;;;;;;11.55;7.82;;;18.90;99.90;;;;;;5110821;28;20106;-76
2023/06/10 06:02:22;;;;;;;17.27;8.73;;;19.00;99.90;;;;;;5111773;28;20115;-77
2023/06/10 06:04:48;;;;;;;13.70;7.60;;;19.10;99.90;;;;;;5110177;28;20046;-81
2023/06/10 06:07:13;;;;;;;13.63;8.38;;;19.20;99.90;;;;;;5111010;28;20032;-77
2023/06/10 06:09:39;;;;;;;11.63;7.80;;;19.40;99.90;;;;;;5106732;28;20035;-76
2023/06/10 06:12:07;;;;;;;12.02;8.07;;;19.50;99.90;;;;;;5110584;28;20065;-76
2023/06/10 06:14:36;;;;;;;11.70;7.68;;;19.50;99.90;;;;;;5111200;28;20023;-76
2023/06/10 06:17:02;;;;;;;14.20;8.90;;;19.50;99.90;;;;;;5105766;28;20028;-76
2023/06/10 06:19:28;;;;;;;19.10;7.90;;;19.50;99.90;;;;;;5090855;28;20792;-77
2023/06/10 06:21:54;;;;;;;12.63;8.50;;;19.60;99.90;;;;;;5101233;28;20034;-76
2023/06/10 06:24:19;;;;;;;13.13;8.13;;;19.70;99.90;;;;;;5111048;28;20392;-77
2023/06/10 06:26:45;;;;;;;11.95;8.02;;;19.80;99.90;;;;;;5111051;28;20080;-75
2023/06/10 06:29:10;;;;;;;16.48;8.73;;;19.90;99.90;;;;;;5108582;28;20139;-76
2023/06/10 06:31:36;;;;;;;13.32;8.32;;;20.10;99.90;;;;;;5110909;28;20039;-76
2023/06/10 06:34:02;;;;;;;13.65;7.60;;;20.10;99.90;;;;;;5103028;28;20028;-75
2023/06/10 06:36:27;;;;;;;10.90;7.70;;;20.30;99.90;;;;;;5110866;28;20508;-71
2023/06/10 06:38:53;;;;;;;12.02;8.10;;;20.40;99.90;;;;;;5078409;28;20170;-74
2023/06/10 06:41:19;;;;;;;18.25;8.38;;;20.60;99.90;;;;;;5070083;28;20071;-76
2023/06/10 06:43:45;;;;;;;12.05;8.48;;;20.60;99.90;;;;;;5070076;28;20369;-75
2023/06/10 06:46:10;;;;;;;11.60;7.93;;;20.60;99.90;;;;;;5069125;28;20484;-75
2023/06/10 06:48:36;;;;;;;11.80;7.82;;;20.60;99.90;;;;;;5125078;27;20040;-75
2023/06/10 06:51:01;;;;;;;14.23;8.23;;;20.80;99.90;;;;;;5089347;28;20032;-74
2023/06/10 06:53:27;;;;;;;16.38;7.88;;;20.90;99.90;;;;;;5090274;28;20027;-74
2023/06/10 06:55:53;;;;;;;10.95;7.78;;;21.00;99.90;;;;;;5088940;28;20631;-75
2023/06/10 06:58:18;;;;;;;12.75;8.30;;;21.00;99.90;;;;;;5090065;28;20115;-75
2023/06/10 07:00:44;;;;;;;12.32;8.18;;;21.30;99.90;;;;;;5095724;28;20024;-76
2023/06/10 07:03:10;;;;;;;11.57;8.15;;;21.40;99.90;;;;;;5109300;28;20129;-76
2023/06/10 07:05:35;;;;;;;14.02;7.88;;;21.60;99.90;;;;;;5110209;28;20019;-75
2023/06/10 07:08:01;;;;;;;12.10;8.93;;;21.70;99.90;;;;;;5109204;28;20031;-74
2023/06/10 07:10:28;;;;;;;11.82;8.50;;;21.80;99.90;;;;;;5110214;28;20365;-75
2023/06/10 07:12:53;;;;;;;12.32;8.32;;;21.90;99.90;;;;;;5105157;28;20164;-77
2023/06/10 07:15:19;;;;;;;13.35;8.45;;;22.00;99.90;;;;;;5108550;28;20458;-74
2023/06/10 07:17:45;;;;;;;12.85;8.82;;;22.00;99.90;;;;;;5099241;28;20042;-75
2023/06/10 07:20:11;;;;;;;11.07;8.43;;;22.10;99.90;;;;;;5088979;28;20052;-75
2023/06/10 07:22:39;;;;;;;12.98;8.73;;;22.30;99.90;;;;;;5089394;28;20105;-75
2023/06/10 07:25:05;;;;;;;12.45;8.23;;;22.50;99.90;;;;;;5088823;28;20035;-74
2023/06/10 07:27:30;;;;;;;12.05;8.63;;;22.60;99.90;;;;;;5094896;28;20028;-75
2023/06/10 07:29:56;;;;;;;14.23;7.55;;;22.50;99.90;;;;;;5087074;28;20465;-75
2023/06/10 07:32:23;;;;;;;11.93;8.27;;;22.70;99.90;;;;;;5089468;28;20377;-75
2023/06/10 07:34:49;;;;;;;10.60;7.88;;;22.80;99.90;;;;;;5089361;28;20030;-76
2023/06/10 07:37:15;;;;;;;11.90;7.72;;;23.10;99.90;;;;;;5088414;28;20107;-75
2023/06/10 07:39:41;;;;;;;12.63;8.00;;;23.40;99.90;;;;;;5087970;28;20119;-75
2023/06/10 07:42:07;;;;;;;18.30;8.20;;;23.40;99.90;;;;;;5076626;28;20380;-75
2023/06/10 07:44:32;;;;;;;12.95;7.78;;;23.30;99.90;;;;;;5084663;28;20473;-75
2023/06/10 07:46:58;;;;;;;9.43;6.95;;;23.20;99.90;;;;;;5088503;28;20139;-75
2023/06/10 07:49:24;;;;;;;10.55;7.32;;;23.20;99.90;;;;;;5106392;28;20039;-75
2023/06/10 07:51:50;;;;;;;14.57;7.40;;;23.30;99.90;;;;;;5109280;28;20027;-77
2023/06/10 07:54:18;;;;;;;11.52;7.55;;;23.50;99.90;;;;;;5108758;28;20084;-76
2023/06/10 07:56:44;;;;;;;12.68;7.80;;;23.60;99.90;;;;;;5109334;28;20109;-75
2023/06/10 07:59:09;;;;;;;11.63;7.70;;;23.70;99.90;;;;;;5108419;28;20027;-75
2023/06/10 08:01:37;;;;;;;9.98;7.15;;;23.60;99.90;;;;;;5105561;28;20471;-74
2023/06/10 08:04:04;;;;;;;9.13;6.85;;;23.70;99.90;;;;;;5108472;28;20024;-74
2023/06/10 08:06:29;;;;;;;15.30;7.25;;;23.50;99.90;;;;;;5109208;28;20038;-76
2023/06/10 08:08:55;;;;;;;15.20;7.75;;;23.70;99.90;;;;;;5107080;28;20031;-79
2023/06/10 08:11:21;;;;;;;9.95;6.65;;;23.90;99.90;;;;;;5107540;28;20421;-75
2023/06/10 08:13:46;;;;;;;14.02;6.50;;;23.90;99.90;;;;;;5103639;28;20032;-76
2023/06/10 08:16:12;;;;;;;9.63;6.78;;;24.00;99.90;;;;;;5107690;28;20562;-76
2023/06/10 08:18:38;;;;;;;8.77;6.70;;;24.20;99.90;;;;;;5091062;28;20047;-76
2023/06/10 08:21:03;;;;;;;7.32;5.82;;;24.30;99.70;;;;;;5087849;28;20024;-75
2023/06/10 08:23:29;;;;;;;15.00;6.53;;;24.20;99.40;;;;;;5100901;28;20116;-75
2023/06/10 08:25:55;;;;;;;7.18;5.82;;;24.00;98.40;;;;;;5102314;28;20032;-77
2023/06/10 08:28:21;;;;;;;9.73;6.75;;;23.80;99.10;;;;;;5110660;28;20053;-74
2023/06/10 08:30:46;;;;;;;9.45;7.25;;;24.00;99.30;;;;;;5111556;28;20028;-77
2023/06/10 08:33:12;;;;;;;11.57;7.68;;;24.10;99.50;;;;;;5102463;28;20036;-75
2023/06/10 08:35:38;;;;;;;9.20;7.72;;;24.20;99.70;;;;;;5113458;28;20028;-76
2023/06/10 08:38:03;;;;;;;11.38;7.30;;;24.30;99.60;;;;;;5112129;28;20031;-78
2023/06/10 08:40:29;;;;;;;13.07;7.95;;;24.40;98.70;;;;;;5113129;28;20511;-78
2023/06/10 08:43:06;;;;;;;11.25;7.65;;;24.60;99.40;;;;;;5109697;28;20024;-80
2023/06/10 08:45:35;;;;;;;12.35;7.47;;;24.70;98.80;;;;;;5108329;28;20067;-76
2023/06/10 08:48:08;;;;;;;11.68;7.82;;;24.80;99.30;;;;;;5097899;28;20093;-76
2023/06/10 08:50:38;;;;;;;11.50;8.10;;;24.90;99.00;;;;;;5092247;28;20424;-76
2023/06/10 08:53:07;;;;;;;11.85;7.97;;;24.60;99.00;;;;;;5091554;28;20027;-77
2023/06/10 08:55:37;;;;;;;11.48;7.57;;;24.50;99.10;;;;;;5092361;28;20028;-76
2023/06/10 08:58:03;;;;;;;10.17;7.87;;;24.50;98.90;;;;;;5090824;28;20024;-76
2023/06/10 09:00:30;;;;;;;12.82;8.10;;;24.60;98.70;;;;;;5110263;28;20024;-76
2023/06/10 09:02:57;;;;;;;11.73;7.78;;;24.70;98.40;;;;;;5112481;28;20435;-78
2023/06/10 09:05:23;;;;;;;10.95;7.65;;;24.80;98.80;;;;;;5110838;28;20039;-78
2023/06/10 09:07:51;;;;;;;11.52;8.07;;;24.90;97.60;;;;;;5112322;28;20031;-77
2023/06/10 09:10:16;;;;;;;10.63;7.75;;;25.10;99.30;;;;;;5111946;28;20662;-77
2023/06/10 09:12:42;;;;;;;10.88;7.75;;;25.40;97.60;;;;;;5110759;28;20035;-76
2023/06/10 09:15:08;;;;;;;10.73;8.25;;;25.50;96.70;;;;;;5142830;27;20043;-77
2023/06/10 09:17:36;;;;;;;10.82;7.78;;;25.40;97.30;;;;;;5103438;28;20035;-77
2023/06/10 09:20:02;;;;;;;13.20;7.82;;;25.20;96.70;;;;;;5090991;28;20411;-75
2023/06/10 09:22:28;;;;;;;9.98;7.78;;;25.20;96.50;;;;;;5091692;28;20051;-76
2023/06/10 09:25:08;;;;;;;9.88;7.95;;;25.10;96.50;;;;;;5091865;28;20032;-76
2023/06/10 09:27:55;;;;;;;10.98;7.72;;;25.00;96.90;;;;;;5081302;28;20035;-76
2023/06/10 09:30:29;;;;;;;10.52;7.63;;;25.10;97.00;;;;;;5077646;28;20049;-77
2023/06/10 09:32:56;;;;;;;9.50;7.65;;;25.30;96.80;;;;;;5080923;28;20030;-77
2023/06/10 09:35:26;;;;;;;10.50;7.70;;;25.60;96.10;;;;;;5076905;28;20511;-76
2023/06/10 09:37:53;;;;;;;;;;;25.70;95.20;;;;;;5122309;27;20024;-76
2023/06/10 09:40:19;;;;;;;10.07;7.25;;;25.80;95.30;;;;;;5087254;28;20074;-76
2023/06/10 09:42:44;;;;;;;10.32;7.53;;;25.50;95.70;;;;;;5100448;28;20480;-76
2023/06/10 09:45:10;;;;;;;10.23;8.13;;;25.10;95.90;;;;;;5109098;28;20027;-76
2023/06/10 09:47:36;;;;;;;12.77;8.10;;;24.80;96.60;;;;;;5083727;28;20413;-77
2023/06/10 09:50:03;;;;;;;13.38;7.82;;;24.70;96.40;;;;;;5084704;28;20050;-79
2023/06/10 09:52:29;;;;;;;16.02;8.15;;;24.90;97.20;;;;;;5080518;28;20039;-77
2023/06/10 09:55:01;;;;;;;11.02;7.75;;;25.20;96.50;;;;;;5116543;27;20040;-77
2023/06/10 09:57:32;;;;;;;9.90;7.38;;;25.10;95.50;;;;;;5088799;28;20031;-77
2023/06/10 09:59:58;;;;;;;12.82;7.90;;;25.00;96.50;;;;;;5110111;27;20566;-75
2023/06/10 10:02:24;;;;;;;11.25;8.25;;;25.40;95.60;;;;;;5091110;28;20032;-76
2023/06/10 10:04:50;;;;;;;11.55;7.57;;;25.70;94.50;;;;;;5090967;28;20469;-77
2023/06/10 10:07:15;;;;;;;9.30;7.47;;;25.70;94.20;;;;;;5088224;28;20028;-77
2023/06/10 10:09:42;;;;;;;10.23;7.90;;;26.10;94.50;;;;;;5090876;28;20117;-76
2023/06/10 10:12:11;;;;;;;11.52;7.60;;;26.20;93.80;;;;;;5121839;27;20512;-77
2023/06/10 10:14:38;;;;;;;10.60;8.30;;;25.80;95.20;;;;;;5128440;27;20361;-78
2023/06/10 10:17:09;;;;;;;12.30;8.02;;;25.80;95.50;;;;;;5092556;28;20446;-78
2023/06/10 10:19:44;;;;;;;10.35;7.28;;;25.80;94.90;;;;;;5088468;28;20050;-79
2023/06/10 10:22:18;;;;;;;9.75;7.32;;;25.90;95.30;;;;;;5086108;28;20478;-76
2023/06/10 10:24:50;;;;;;;10.32;7.22;;;26.30;94.30;;;;;;5091638;28;20134;-77
2023/06/10 10:27:42;;;;;;;9.52;7.63;;;26.10;92.80;;;;;;5100155;28;20085;-77
2023/06/10 10:30:12;;;;;;;10.25;7.75;;;25.80;93.90;;;;;;5081410;28;20059;-80
2023/06/10 10:32:45;;;;;;;10.25;7.30;;;26.00;93.80;;;;;;5109871;27;20110;-76
2023/06/10 10:35:21;;;;;;;9.25;6.97;;;26.60;92.20;;;;;;5076557;28;20056;-76
2023/06/10 10:37:47;;;;;;;9.80;6.32;;;27.10;91.60;;;;;;5069854;28;20028;-77
2023/06/10 10:40:14;;;;;;;9.25;7.57;;;27.40;91.50;;;;;;5069470;28;20539;-76
2023/06/10 10:42:41;;;;;;;8.48;7.07;;;27.70;90.00;;;;;;5083548;28;20047;-76
2023/06/10 10:45:08;;;;;;;9.43;6.65;;;27.30;88.20;;;;;;5108445;28;20027;-76
2023/06/10 10:47:36;;;;;;;11.45;7.03;;;27.20;89.10;;;;;;5096397;28;20077;-76
2023/06/10 10:50:16;;;;;;;11.30;6.57;;;27.30;89.30;;;;;;5084783;28;20034;-78
2023/06/10 10:52:51;;;;;;;9.63;7.28;;;27.20;87.60;;;;;;5090885;28;20043;-75
2023/06/10 10:55:17;;;;;;;8.40;6.65;;;27.30;88.40;;;;;;5083920;28;20491;-77
2023/06/10 10:57:43;;;;;;;9.93;6.93;;;27.20;89.00;;;;;;5088106;28;20067;-76
2023/06/10 11:00:10;;;;;;;7.10;5.57;;;27.40;86.30;;;;;;5089256;28;20036;-76
2023/06/10 11:02:45;;;;;;;8.40;6.55;;;27.40;85.50;;;;;;5088310;28;20160;-77
2023/06/10 11:05:13;;;;;;;10.18;6.18;;;27.50;83.70;;;;;;5089108;28;20055;-77
2023/06/10 11:07:39;;;;;;;7.22;5.95;;;27.80;83.60;;;;;;5115886;27;20032;-76
2023/06/10 11:10:13;;;;;;;8.02;6.18;;;28.20;85.30;;;;;;5101613;28;20042;-79
2023/06/10 11:12:45;;;;;;;8.38;6.22;;;28.20;82.90;;;;;;5086355;28;20043;-76
2023/06/10 11:15:17;;;;;;;8.77;6.22;;;27.90;81.70;;;;;;5074178;28;20751;-76
2023/06/10 11:18:09;;;;;;;7.70;5.70;;;27.70;82.10;;;;;;5079849;28;20473;-75
2023/06/10 11:20:48;;;;;;;8.30;5.80;;;27.40;80.80;;;;;;5088116;28;20066;-76
2023/06/10 11:23:31;;;;;;;6.68;5.28;;;26.80;83.10;;;;;;5088582;28;20028;-77
2023/06/10 11:26:16;;;;;;;9.07;6.35;;;26.70;83.50;;;;;;5079759;28;20021;-76
2023/06/10 11:28:45;;;;;;;11.00;6.47;;;27.20;82.80;;;;;;5084237;28;20032;-76
2023/06/10 11:31:24;;;;;;;6.60;5.78;;;27.50;82.00;;;;;;5087274;28;20439;-76
2023/06/10 11:33:54;;;;;;;7.35;6.07;;;27.80;81.60;;;;;;5120536;27;20032;-76
2023/06/10 11:36:20;;;;;;;8.65;5.47;;;27.90;79.90;;;;;;5067274;28;20078;-77
2023/06/10 11:38:46;;;;;;;7.35;5.35;;;27.60;78.40;;;;;;5080167;28;20125;-76
2023/06/10 11:41:14;;;;;;;8.68;5.68;;;27.10;79.70;;;;;;5070327;28;20458;-77
2023/06/10 11:43:46;;;;;;;7.97;5.90;;;27.10;80.40;;;;;;5089178;28;20090;-76
2023/06/10 11:46:15;;;;;;;7.50;5.82;;;27.30;80.40;;;;;;5078534;28;20040;-75
2023/06/10 11:48:55;;;;;;;7.53;6.05;;;27.10;80.20;;;;;;5086701;28;20044;-75
2023/06/10 11:51:21;;;;;;;7.97;6.30;;;26.50;81.50;;;;;;5088299;28;20115;-76
2023/06/10 11:53:50;;;;;;;7.15;6.28;;;26.60;82.90;;;;;;5088828;28;20040;-75
2023/06/10 11:56:24;;;;;;;8.48;6.22;;;27.00;81.20;;;;;;5070276;28;20072;-76
2023/06/10 11:58:54;;;;;;;8.45;6.05;;;27.30;80.80;;;;;;5086657;28;20075;-77
2023/06/10 12:01:24;;;;;;;8.18;5.90;;;27.80;79.60;;;;;;5068815;28;20020;-76
2023/06/10 12:03:58;;;;;;;7.13;5.43;;;28.00;77.60;;;;;;5084804;28;20467;-77
2023/06/10 12:06:24;;;;;;;12.65;6.18;;;28.10;75.50;;;;;;5074770;28;20035;-77
2023/06/10 12:08:49;;;;;;;6.80;5.63;;;28.20;75.10;;;;;;5077219;28;20040;-76
2023/06/10 12:11:15;;;;;;;6.03;5.40;;;28.20;73.70;;;;;;5086046;28;20039;-76
2023/06/10 12:13:49;;;;;;;6.90;5.97;;;28.00;75.00;;;;;;5088514;28;20131;-76
2023/06/10 12:16:15;;;;;;;8.70;5.65;;;28.30;75.80;;;;;;5084168;28;20414;-78
2023/06/10 12:18:46;;;;;;;6.88;5.68;;;28.50;73.80;;;;;;5086738;28;20107;-76
2023/06/10 12:21:20;;;;;;;10.52;5.60;;;28.50;74.40;;;;;;5076473;28;20032;-76
2023/06/10 12:24:09;;;;;;;9.07;5.65;;;28.10;73.00;;;;;;5078467;28;20118;-74
2023/06/10 12:26:44;;;;;;;7.70;6.10;;;28.00;75.20;;;;;;5077831;28;20024;-76
2023/06/10 12:29:17;;;;;;;7.63;6.05;;;27.60;76.90;;;;;;5067711;28;20119;-79
2023/06/10 12:32:05;;;;;;;7.68;5.50;;;27.60;77.30;;;;;;5069451;28;20040;-76
2023/06/10 12:34:38;;;;;;;6.15;5.55;;;27.80;76.60;;;;;;5086649;28;20642;-78
2023/06/10 12:37:13;;;;;;;8.60;6.25;;;27.90;76.70;;;;;;5081184;28;20472;-75
2023/06/10 12:39:39;;;;;;;7.72;5.78;;;28.00;74.80;;;;;;5076611;28;20057;-76